sensor_id;sensor_type;location;lat;lon;timestamp;temperature;humidity
42615;DHT22;28754;47.700;7.924;2023-04-24T00:02:13;9.60;99.90
42615;DHT22;28754;47.700;7.924;2023-04-24T00:05:00;9.60;99.90
42615;DHT22;28754;47.700;7.924;2023-04-24T00:07:50;9.70;99.90
42615;DHT22;28754;47.700;7.924;2023-04-24T00:10:41;9.70;99.90
42615;DHT22;28754;47.700;7.924;2023-04-24T00:13:27;9.60;99.90
42615;DHT22;28754;47.700;7.924;2023-04-24T00:16:17;9.60;99.90
42615;DHT22;28754;47.700;7.924;2023-04-24T00:19:03;9.60;99.90
42615;DHT22;28754;47.700;7.924;2023-04-24T00:21:52;9.60;99.90
42615;DHT22;28754;47.700;7.924;2023-04-24T00:24:39;9.50;99.90
42615;DHT22;28754;47.700;7.924;2023-04-24T00:27:25;9.50;99.90
42615;DHT22;28754;47.700;7.924;2023-04-24T00:30:12;9.40;99.90
42615;DHT22;28754;47.700;7.924;2023-04-24T00:32:59;9.40;99.90
42615;DHT22;28754;47.700;7.924;2023-04-24T00:35:46;9.50;99.90
42615;DHT22;28754;47.700;7.924;2023-04-24T00:38:33;9.50;99.90
42615;DHT22;28754;47.700;7.924;2023-04-24T00:41:19;9.50;99.90
42615;DHT22;28754;47.700;7.924;2023-04-24T00:44:07;9.50;99.90
42615;DHT22;28754;47.700;7.924;2023-04-24T00:46:55;9.50;99.90
42615;DHT22;28754;47.700;7.924;2023-04-24T00:49:42;9.50;99.90
42615;DHT22;28754;47.700;7.924;2023-04-24T00:52:29;9.50;99.90
42615;DHT22;28754;47.700;7.924;2023-04-24T00:55:18;9.40;99.90
42615;DHT22;28754;47.700;7.924;2023-04-24T00:58:05;9.50;99.90
42615;DHT22;28754;47.700;7.924;2023-04-24T01:00:52;9.40;99.90
42615;DHT22;28754;47.700;7.924;2023-04-24T01:03:40;9.30;99.90
42615;DHT22;28754;47.700;7.924;2023-04-24T01:06:28;9.30;99.90
42615;DHT22;28754;47.700;7.924;2023-04-24T01:09:18;9.30;99.90
42615;DHT22;28754;47.700;7.924;2023-04-24T01:12:05;9.10;99.90
42615;DHT22;28754;47.700;7.924;2023-04-24T01:14:53;9.20;99.90
42615;DHT22;28754;47.700;7.924;2023-04-24T01:17:40;9.00;99.90
42615;DHT22;28754;47.700;7.924;2023-04-24T01:20:27;9.10;99.90
42615;DHT22;28754;47.700;7.924;2023-04-24T01:23:17;9.20;99.90
42615;DHT22;28754;47.700;7.924;2023-04-24T01:26:04;9.20;99.90
42615;DHT22;28754;47.700;7.924;2023-04-24T01:28:51;9.20;99.90
42615;DHT22;28754;47.700;7.924;2023-04-24T01:31:39;9.20;99.90
42615;DHT22;28754;47.700;7.924;2023-04-24T01:34:26;9.20;99.90
42615;DHT22;28754;47.700;7.924;2023-04-24T01:37:13;9.00;99.90
42615;DHT22;28754;47.700;7.924;2023-04-24T01:40:00;8.90;99.90
42615;DHT22;28754;47.700;7.924;2023-04-24T01:42:47;9.00;99.90
42615;DHT22;28754;47.700;7.924;2023-04-24T01:45:34;9.10;99.90
42615;DHT22;28754;47.700;7.924;2023-04-24T01:48:24;9.20;99.90
42615;DHT22;28754;47.700;7.924;2023-04-24T01:51:12;9.20;99.90
42615;DHT22;28754;47.700;7.924;2023-04-24T01:53:59;9.20;99.90
42615;DHT22;28754;47.700;7.924;2023-04-24T01:56:46;9.20;99.90
42615;DHT22;28754;47.700;7.924;2023-04-24T01:59:33;9.20;99.90
42615;DHT22;28754;47.700;7.924;2023-04-24T02:06:13;9.00;99.90
42615;DHT22;28754;47.700;7.924;2023-04-24T02:09:14;9.00;99.90
42615;DHT22;28754;47.700;7.924;2023-04-24T02:12:00;9.00;99.90
42615;DHT22;28754;47.700;7.924;2023-04-24T02:14:47;9.10;99.90
42615;DHT22;28754;47.700;7.924;2023-04-24T02:17:34;8.90;99.90
42615;DHT22;28754;47.700;7.924;2023-04-24T02:20:21;8.90;99.90
42615;DHT22;28754;47.700;7.924;2023-04-24T02:23:08;9.00;99.90
42615;DHT22;28754;47.700;7.924;2023-04-24T02:25:54;9.00;99.90
42615;DHT22;28754;47.700;7.924;2023-04-24T02:28:42;9.00;99.90
42615;DHT22;28754;47.700;7.924;2023-04-24T02:31:28;9.00;99.90
42615;DHT22;28754;47.700;7.924;2023-04-24T02:34:15;8.80;99.90
42615;DHT22;28754;47.700;7.924;2023-04-24T02:37:02;8.60;99.90
42615;DHT22;28754;47.700;7.924;2023-04-24T02:39:49;8.70;99.90
42615;DHT22;28754;47.700;7.924;2023-04-24T02:42:36;8.70;99.90
42615;DHT22;28754;47.700;7.924;2023-04-24T02:45:22;8.70;99.90
42615;DHT22;28754;47.700;7.924;2023-04-24T02:48:09;8.80;99.90
42615;DHT22;28754;47.700;7.924;2023-04-24T02:50:56;8.80;99.90
42615;DHT22;28754;47.700;7.924;2023-04-24T02:53:43;8.80;99.90
42615;DHT22;28754;47.700;7.924;2023-04-24T02:56:30;8.60;99.90
42615;DHT22;28754;47.700;7.924;2023-04-24T02:59:19;8.60;99.90
42615;DHT22;28754;47.700;7.924;2023-04-24T03:02:06;8.70;99.90
42615;DHT22;28754;47.700;7.924;2023-04-24T03:04:52;8.60;99.90
42615;DHT22;28754;47.700;7.924;2023-04-24T03:07:40;8.60;99.90
42615;DHT22;28754;47.700;7.924;2023-04-24T03:10:27;8.50;99.90
42615;DHT22;28754;47.700;7.924;2023-04-24T03:13:15;8.60;99.90
42615;DHT22;28754;47.700;7.924;2023-04-24T03:16:03;8.60;99.90
42615;DHT22;28754;47.700;7.924;2023-04-24T03:18:51;8.60;99.90
42615;DHT22;28754;47.700;7.924;2023-04-24T03:21:39;8.60;99.90
42615;DHT22;28754;47.700;7.924;2023-04-24T03:24:27;8.60;99.90
42615;DHT22;28754;47.700;7.924;2023-04-24T03:27:15;8.60;99.90
42615;DHT22;28754;47.700;7.924;2023-04-24T03:30:20;8.60;99.90
42615;DHT22;28754;47.700;7.924;2023-04-24T03:33:13;8.50;99.90
42615;DHT22;28754;47.700;7.924;2023-04-24T03:36:08;8.60;99.90
42615;DHT22;28754;47.700;7.924;2023-04-24T03:38:59;8.50;99.90
42615;DHT22;28754;47.700;7.924;2023-04-24T03:41:52;8.30;99.90
42615;DHT22;28754;47.700;7.924;2023-04-24T03:44:43;8.30;99.90
42615;DHT22;28754;47.700;7.924;2023-04-24T03:47:30;8.50;99.90
42615;DHT22;28754;47.700;7.924;2023-04-24T03:50:20;8.40;99.90
42615;DHT22;28754;47.700;7.924;2023-04-24T03:53:07;8.50;99.90
42615;DHT22;28754;47.700;7.924;2023-04-24T03:55:59;8.40;99.90
42615;DHT22;28754;47.700;7.924;2023-04-24T03:58:45;8.40;99.90
42615;DHT22;28754;47.700;7.924;2023-04-24T04:01:34;8.20;99.90
42615;DHT22;28754;47.700;7.924;2023-04-24T04:04:33;8.20;99.90
42615;DHT22;28754;47.700;7.924;2023-04-24T04:07:20;8.30;99.90
42615;DHT22;28754;47.700;7.924;2023-04-24T04:10:07;8.20;99.90
42615;DHT22;28754;47.700;7.924;2023-04-24T04:12:56;8.00;99.90
42615;DHT22;28754;47.700;7.924;2023-04-24T04:15:43;7.90;99.90
42615;DHT22;28754;47.700;7.924;2023-04-24T04:18:30;7.90;99.90
42615;DHT22;28754;47.700;7.924;2023-04-24T04:21:17;8.00;99.90
42615;DHT22;28754;47.700;7.924;2023-04-24T04:24:04;8.00;99.90
42615;DHT22;28754;47.700;7.924;2023-04-24T04:26:57;7.90;99.90
42615;DHT22;28754;47.700;7.924;2023-04-24T04:29:55;7.90;99.90
42615;DHT22;28754;47.700;7.924;2023-04-24T04:32:43;8.00;99.90
42615;DHT22;28754;47.700;7.924;2023-04-24T04:35:30;7.80;99.90
42615;DHT22;28754;47.700;7.924;2023-04-24T04:38:19;7.90;99.90
42615;DHT22;28754;47.700;7.924;2023-04-24T04:41:12;7.90;99.90
42615;DHT22;28754;47.700;7.924;2023-04-24T04:43:58;7.80;99.90
42615;DHT22;28754;47.700;7.924;2023-04-24T04:46:46;7.90;99.90
42615;DHT22;28754;47.700;7.924;2023-04-24T04:49:46;8.00;99.90
42615;DHT22;28754;47.700;7.924;2023-04-24T04:52:41;7.90;99.90
42615;DHT22;28754;47.700;7.924;2023-04-24T04:55:40;8.00;99.90
42615;DHT22;28754;47.700;7.924;2023-04-24T04:58:31;8.00;99.90
42615;DHT22;28754;47.700;7.924;2023-04-24T05:01:20;7.90;99.90
42615;DHT22;28754;47.700;7.924;2023-04-24T05:04:10;7.80;99.90
42615;DHT22;28754;47.700;7.924;2023-04-24T05:06:57;7.90;99.90
42615;DHT22;28754;47.700;7.924;2023-04-24T05:09:46;7.90;99.90
42615;DHT22;28754;47.700;7.924;2023-04-24T05:12:33;7.80;99.90
42615;DHT22;28754;47.700;7.924;2023-04-24T05:15:21;7.90;99.90
42615;DHT22;28754;47.700;7.924;2023-04-24T05:18:08;7.90;99.90
42615;DHT22;28754;47.700;7.924;2023-04-24T05:20:55;7.80;99.90
42615;DHT22;28754;47.700;7.924;2023-04-24T05:23:42;7.80;99.90
42615;DHT22;28754;47.700;7.924;2023-04-24T05:26:33;7.60;99.90
42615;DHT22;28754;47.700;7.924;2023-04-24T05:29:21;7.50;99.90
42615;DHT22;28754;47.700;7.924;2023-04-24T05:32:08;7.70;99.90
42615;DHT22;28754;47.700;7.924;2023-04-24T05:34:55;7.70;99.90
42615;DHT22;28754;47.700;7.924;2023-04-24T05:37:42;7.80;99.90
42615;DHT22;28754;47.700;7.924;2023-04-24T05:40:30;7.60;99.90
42615;DHT22;28754;47.700;7.924;2023-04-24T05:43:17;7.50;99.90
42615;DHT22;28754;47.700;7.924;2023-04-24T05:46:04;7.40;99.90
42615;DHT22;28754;47.700;7.924;2023-04-24T05:48:51;7.40;99.90
42615;DHT22;28754;47.700;7.924;2023-04-24T05:51:38;7.50;99.90
42615;DHT22;28754;47.700;7.924;2023-04-24T05:54:26;7.50;99.90
42615;DHT22;28754;47.700;7.924;2023-04-24T05:57:13;7.60;99.90
42615;DHT22;28754;47.700;7.924;2023-04-24T06:00:29;7.60;99.90
42615;DHT22;28754;47.700;7.924;2023-04-24T06:03:23;7.60;99.90
42615;DHT22;28754;47.700;7.924;2023-04-24T06:06:10;7.80;99.90
42615;DHT22;28754;47.700;7.924;2023-04-24T06:08:57;7.70;99.90
42615;DHT22;28754;47.700;7.924;2023-04-24T06:11:45;7.70;99.90
42615;DHT22;28754;47.700;7.924;2023-04-24T06:14:34;7.60;99.90
42615;DHT22;28754;47.700;7.924;2023-04-24T06:17:44;7.60;99.90
42615;DHT22;28754;47.700;7.924;2023-04-24T06:20:34;7.70;99.90
42615;DHT22;28754;47.700;7.924;2023-04-24T06:23:22;7.50;99.90
42615;DHT22;28754;47.700;7.924;2023-04-24T06:26:08;7.60;99.90
42615;DHT22;28754;47.700;7.924;2023-04-24T06:29:33;7.80;99.90
42615;DHT22;28754;47.700;7.924;2023-04-24T06:32:24;7.70;99.90
42615;DHT22;28754;47.700;7.924;2023-04-24T06:35:10;7.80;99.90
42615;DHT22;28754;47.700;7.924;2023-04-24T06:37:58;7.60;99.90
42615;DHT22;28754;47.700;7.924;2023-04-24T06:40:45;7.20;99.90
42615;DHT22;28754;47.700;7.924;2023-04-24T06:43:32;7.20;99.90
42615;DHT22;28754;47.700;7.924;2023-04-24T06:46:18;7.10;99.90
42615;DHT22;28754;47.700;7.924;2023-04-24T06:49:05;6.80;99.90
42615;DHT22;28754;47.700;7.924;2023-04-24T06:51:52;6.80;99.90
42615;DHT22;28754;47.700;7.924;2023-04-24T06:54:38;6.70;99.90
42615;DHT22;28754;47.700;7.924;2023-04-24T06:57:25;6.60;99.90
42615;DHT22;28754;47.700;7.924;2023-04-24T07:00:12;6.70;99.90
42615;DHT22;28754;47.700;7.924;2023-04-24T07:02:59;7.00;99.90
42615;DHT22;28754;47.700;7.924;2023-04-24T07:05:46;7.40;99.90
42615;DHT22;28754;47.700;7.924;2023-04-24T07:08:33;7.70;99.90
42615;DHT22;28754;47.700;7.924;2023-04-24T07:11:20;7.80;99.90
42615;DHT22;28754;47.700;7.924;2023-04-24T07:14:07;8.00;99.90
42615;DHT22;28754;47.700;7.924;2023-04-24T07:16:54;8.20;99.90
42615;DHT22;28754;47.700;7.924;2023-04-24T07:19:41;8.10;99.90
42615;DHT22;28754;47.700;7.924;2023-04-24T07:22:27;8.80;99.90
42615;DHT22;28754;47.700;7.924;2023-04-24T07:25:14;8.90;99.90
42615;DHT22;28754;47.700;7.924;2023-04-24T07:28:01;8.80;99.90
42615;DHT22;28754;47.700;7.924;2023-04-24T07:30:47;8.60;99.90
42615;DHT22;28754;47.700;7.924;2023-04-24T07:33:34;8.50;99.90
42615;DHT22;28754;47.700;7.924;2023-04-24T07:36:22;8.30;99.90
42615;DHT22;28754;47.700;7.924;2023-04-24T07:39:10;8.20;99.90
42615;DHT22;28754;47.700;7.924;2023-04-24T07:41:57;8.30;99.90
42615;DHT22;28754;47.700;7.924;2023-04-24T07:44:45;8.50;99.90
42615;DHT22;28754;47.700;7.924;2023-04-24T07:47:34;8.60;99.90
42615;DHT22;28754;47.700;7.924;2023-04-24T07:50:21;8.60;99.90
42615;DHT22;28754;47.700;7.924;2023-04-24T07:53:08;8.90;99.90
42615;DHT22;28754;47.700;7.924;2023-04-24T07:55:55;9.40;99.90
42615;DHT22;28754;47.700;7.924;2023-04-24T07:58:42;9.90;99.90
42615;DHT22;28754;47.700;7.924;2023-04-24T08:01:29;10.30;99.90
42615;DHT22;28754;47.700;7.924;2023-04-24T08:04:16;10.80;99.90
42615;DHT22;28754;47.700;7.924;2023-04-24T08:07:04;10.90;99.90
42615;DHT22;28754;47.700;7.924;2023-04-24T08:09:50;11.10;99.90
42615;DHT22;28754;47.700;7.924;2023-04-24T08:12:38;10.20;99.90
42615;DHT22;28754;47.700;7.924;2023-04-24T08:15:24;9.80;99.90
42615;DHT22;28754;47.700;7.924;2023-04-24T08:18:11;9.40;99.90
42615;DHT22;28754;47.700;7.924;2023-04-24T08:20:59;8.90;99.90
42615;DHT22;28754;47.700;7.924;2023-04-24T08:23:47;8.90;99.90
42615;DHT22;28754;47.700;7.924;2023-04-24T08:26:36;9.10;99.90
42615;DHT22;28754;47.700;7.924;2023-04-24T08:29:23;8.80;99.90
42615;DHT22;28754;47.700;7.924;2023-04-24T08:32:11;8.60;99.90
42615;DHT22;28754;47.700;7.924;2023-04-24T08:34:58;8.50;99.90
42615;DHT22;28754;47.700;7.924;2023-04-24T08:37:45;8.50;99.90
42615;DHT22;28754;47.700;7.924;2023-04-24T08:40:34;8.50;99.90
42615;DHT22;28754;47.700;7.924;2023-04-24T08:43:22;8.70;99.90
42615;DHT22;28754;47.700;7.924;2023-04-24T08:46:09;8.60;99.90
42615;DHT22;28754;47.700;7.924;2023-04-24T08:48:57;8.60;99.90
42615;DHT22;28754;47.700;7.924;2023-04-24T08:51:45;8.60;99.90
42615;DHT22;28754;47.700;7.924;2023-04-24T08:54:35;8.50;99.90
42615;DHT22;28754;47.700;7.924;2023-04-24T08:57:22;8.40;99.90
42615;DHT22;28754;47.700;7.924;2023-04-24T09:00:09;8.60;99.90
42615;DHT22;28754;47.700;7.924;2023-04-24T09:02:57;8.70;99.90
42615;DHT22;28754;47.700;7.924;2023-04-24T09:05:47;8.80;99.90
42615;DHT22;28754;47.700;7.924;2023-04-24T09:08:36;8.60;99.90
42615;DHT22;28754;47.700;7.924;2023-04-24T09:11:25;8.70;99.90
42615;DHT22;28754;47.700;7.924;2023-04-24T09:14:12;9.00;99.90
42615;DHT22;28754;47.700;7.924;2023-04-24T09:17:00;9.10;99.90
42615;DHT22;28754;47.700;7.924;2023-04-24T09:19:47;8.90;99.90
42615;DHT22;28754;47.700;7.924;2023-04-24T09:22:33;8.70;99.90
42615;DHT22;28754;47.700;7.924;2023-04-24T09:25:21;8.80;99.90
42615;DHT22;28754;47.700;7.924;2023-04-24T09:28:08;9.20;99.90
42615;DHT22;28754;47.700;7.924;2023-04-24T09:31:11;8.70;99.90
42615;DHT22;28754;47.700;7.924;2023-04-24T09:34:04;9.20;99.90
42615;DHT22;28754;47.700;7.924;2023-04-24T09:36:54;9.30;99.90
42615;DHT22;28754;47.700;7.924;2023-04-24T09:39:41;8.90;99.90
42615;DHT22;28754;47.700;7.924;2023-04-24T09:42:29;8.80;99.90
42615;DHT22;28754;47.700;7.924;2023-04-24T09:45:16;9.60;99.90
42615;DHT22;28754;47.700;7.924;2023-04-24T09:48:03;10.60;99.90
42615;DHT22;28754;47.700;7.924;2023-04-24T09:50:52;10.90;99.90
42615;DHT22;28754;47.700;7.924;2023-04-24T09:53:39;10.60;99.90
42615;DHT22;28754;47.700;7.924;2023-04-24T09:56:33;10.20;99.90
42615;DHT22;28754;47.700;7.924;2023-04-24T09:59:22;9.70;99.90
42615;DHT22;28754;47.700;7.924;2023-04-24T10:02:18;9.20;99.90
42615;DHT22;28754;47.700;7.924;2023-04-24T10:05:06;9.00;99.90
42615;DHT22;28754;47.700;7.924;2023-04-24T10:08:02;8.80;99.90
42615;DHT22;28754;47.700;7.924;2023-04-24T10:10:51;8.90;99.90
42615;DHT22;28754;47.700;7.924;2023-04-24T10:13:41;9.00;99.90
42615;DHT22;28754;47.700;7.924;2023-04-24T10:16:28;9.20;99.90
42615;DHT22;28754;47.700;7.924;2023-04-24T10:19:17;9.30;99.90
42615;DHT22;28754;47.700;7.924;2023-04-24T10:22:10;9.40;99.90
42615;DHT22;28754;47.700;7.924;2023-04-24T10:24:58;9.60;99.90
42615;DHT22;28754;47.700;7.924;2023-04-24T10:27:49;9.70;99.90
42615;DHT22;28754;47.700;7.924;2023-04-24T10:30:43;9.80;99.90
42615;DHT22;28754;47.700;7.924;2023-04-24T10:33:36;9.70;99.90
42615;DHT22;28754;47.700;7.924;2023-04-24T10:36:31;9.50;99.90
42615;DHT22;28754;47.700;7.924;2023-04-24T10:39:20;9.30;99.90
42615;DHT22;28754;47.700;7.924;2023-04-24T10:46:05;9.80;99.90
42615;DHT22;28754;47.700;7.924;2023-04-24T10:48:56;9.70;99.90
42615;DHT22;28754;47.700;7.924;2023-04-24T10:51:50;9.50;99.90
42615;DHT22;28754;47.700;7.924;2023-04-24T10:54:45;9.30;99.90
42615;DHT22;28754;47.700;7.924;2023-04-24T10:57:33;9.50;99.90
42615;DHT22;28754;47.700;7.924;2023-04-24T11:00:20;9.50;99.90
42615;DHT22;28754;47.700;7.924;2023-04-24T11:03:24;9.20;99.90
42615;DHT22;28754;47.700;7.924;2023-04-24T11:06:15;9.20;99.90
42615;DHT22;28754;47.700;7.924;2023-04-24T11:12:04;9.40;99.90
42615;DHT22;28754;47.700;7.924;2023-04-24T11:17:44;9.40;99.90
42615;DHT22;28754;47.700;7.924;2023-04-24T11:20:30;9.30;99.90
42615;DHT22;28754;47.700;7.924;2023-04-24T11:23:17;9.30;99.90
42615;DHT22;28754;47.700;7.924;2023-04-24T11:26:12;9.40;99.90
42615;DHT22;28754;47.700;7.924;2023-04-24T11:29:08;10.00;99.90
42615;DHT22;28754;47.700;7.924;2023-04-24T11:31:54;10.00;99.90
42615;DHT22;28754;47.700;7.924;2023-04-24T11:34:46;10.20;99.90
42615;DHT22;28754;47.700;7.924;2023-04-24T11:37:38;10.10;99.90
42615;DHT22;28754;47.700;7.924;2023-04-24T11:40:25;10.10;99.90
42615;DHT22;28754;47.700;7.924;2023-04-24T11:43:12;10.20;99.90
42615;DHT22;28754;47.700;7.924;2023-04-24T11:46:01;10.90;99.90
42615;DHT22;28754;47.700;7.924;2023-04-24T11:48:48;11.10;99.90
42615;DHT22;28754;47.700;7.924;2023-04-24T11:51:35;10.80;99.90
42615;DHT22;28754;47.700;7.924;2023-04-24T11:54:21;11.00;99.90
42615;DHT22;28754;47.700;7.924;2023-04-24T11:57:08;11.00;99.90
42615;DHT22;28754;47.700;7.924;2023-04-24T11:59:55;11.10;99.90
42615;DHT22;28754;47.700;7.924;2023-04-24T12:02:42;11.40;99.90
42615;DHT22;28754;47.700;7.924;2023-04-24T12:05:29;11.50;99.90
42615;DHT22;28754;47.700;7.924;2023-04-24T12:08:27;11.50;99.90
42615;DHT22;28754;47.700;7.924;2023-04-24T12:11:16;11.20;99.90
42615;DHT22;28754;47.700;7.924;2023-04-24T12:14:13;10.70;99.90
42615;DHT22;28754;47.700;7.924;2023-04-24T12:17:03;10.20;99.90
42615;DHT22;28754;47.700;7.924;2023-04-24T12:19:49;10.30;99.90
42615;DHT22;28754;47.700;7.924;2023-04-24T12:25:42;9.60;99.90
42615;DHT22;28754;47.700;7.924;2023-04-24T12:28:35;10.30;99.90
42615;DHT22;28754;47.700;7.924;2023-04-24T12:31:23;10.50;99.90
42615;DHT22;28754;47.700;7.924;2023-04-24T12:34:21;10.90;99.90
42615;DHT22;28754;47.700;7.924;2023-04-24T12:37:13;10.70;99.90
42615;DHT22;28754;47.700;7.924;2023-04-24T12:42:53;10.10;99.90
42615;DHT22;28754;47.700;7.924;2023-04-24T12:45:40;9.90;99.90
42615;DHT22;28754;47.700;7.924;2023-04-24T12:48:27;9.80;99.90
42615;DHT22;28754;47.700;7.924;2023-04-24T12:51:15;9.70;99.90
42615;DHT22;28754;47.700;7.924;2023-04-24T12:54:02;10.00;99.90
42615;DHT22;28754;47.700;7.924;2023-04-24T12:56:49;10.20;99.90
42615;DHT22;28754;47.700;7.924;2023-04-24T12:59:47;10.90;99.90
42615;DHT22;28754;47.700;7.924;2023-04-24T13:02:37;11.50;99.90
42615;DHT22;28754;47.700;7.924;2023-04-24T13:05:27;11.30;99.90
42615;DHT22;28754;47.700;7.924;2023-04-24T13:08:16;10.80;99.90
42615;DHT22;28754;47.700;7.924;2023-04-24T13:11:03;10.30;99.90
42615;DHT22;28754;47.700;7.924;2023-04-24T13:13:50;10.20;99.90
42615;DHT22;28754;47.700;7.924;2023-04-24T13:16:37;10.70;99.90
42615;DHT22;28754;47.700;7.924;2023-04-24T13:19:27;11.40;99.90
42615;DHT22;28754;47.700;7.924;2023-04-24T13:22:14;11.20;99.90
42615;DHT22;28754;47.700;7.924;2023-04-24T13:25:00;10.60;99.90
42615;DHT22;28754;47.700;7.924;2023-04-24T13:27:50;10.70;99.90
42615;DHT22;28754;47.700;7.924;2023-04-24T13:30:40;9.90;99.90
42615;DHT22;28754;47.700;7.924;2023-04-24T13:33:27;10.30;99.90
42615;DHT22;28754;47.700;7.924;2023-04-24T13:36:13;10.10;99.90
42615;DHT22;28754;47.700;7.924;2023-04-24T13:39:00;10.20;99.90
42615;DHT22;28754;47.700;7.924;2023-04-24T13:41:47;10.10;99.90
42615;DHT22;28754;47.700;7.924;2023-04-24T13:44:34;10.20;99.90
42615;DHT22;28754;47.700;7.924;2023-04-24T13:47:21;10.70;99.90
42615;DHT22;28754;47.700;7.924;2023-04-24T13:50:08;10.60;99.90
42615;DHT22;28754;47.700;7.924;2023-04-24T13:52:56;10.30;99.90
42615;DHT22;28754;47.700;7.924;2023-04-24T13:55:49;10.30;99.90
42615;DHT22;28754;47.700;7.924;2023-04-24T13:58:38;10.40;99.90
42615;DHT22;28754;47.700;7.924;2023-04-24T14:01:26;10.60;99.90
42615;DHT22;28754;47.700;7.924;2023-04-24T14:04:12;10.40;99.90
42615;DHT22;28754;47.700;7.924;2023-04-24T14:06:59;9.80;99.90
42615;DHT22;28754;47.700;7.924;2023-04-24T14:09:49;9.80;99.90
42615;DHT22;28754;47.700;7.924;2023-04-24T14:12:39;9.80;99.90
42615;DHT22;28754;47.700;7.924;2023-04-24T14:15:26;10.00;99.90
42615;DHT22;28754;47.700;7.924;2023-04-24T14:18:12;10.20;99.90
42615;DHT22;28754;47.700;7.924;2023-04-24T14:20:59;10.10;99.90
42615;DHT22;28754;47.700;7.924;2023-04-24T14:23:47;10.50;99.90
42615;DHT22;28754;47.700;7.924;2023-04-24T14:26:34;10.00;99.90
42615;DHT22;28754;47.700;7.924;2023-04-24T14:29:23;9.90;99.90
42615;DHT22;28754;47.700;7.924;2023-04-24T14:32:12;10.30;99.90
42615;DHT22;28754;47.700;7.924;2023-04-24T14:35:01;10.90;99.90
42615;DHT22;28754;47.700;7.924;2023-04-24T14:37:50;10.90;99.90
42615;DHT22;28754;47.700;7.924;2023-04-24T14:40:37;11.00;99.90
42615;DHT22;28754;47.700;7.924;2023-04-24T14:43:24;11.30;99.90
42615;DHT22;28754;47.700;7.924;2023-04-24T14:46:11;11.50;99.90
42615;DHT22;28754;47.700;7.924;2023-04-24T14:48:57;11.20;99.90
42615;DHT22;28754;47.700;7.924;2023-04-24T14:51:44;10.90;99.90
42615;DHT22;28754;47.700;7.924;2023-04-24T14:54:31;11.20;99.90
42615;DHT22;28754;47.700;7.924;2023-04-24T14:57:18;11.40;99.90
42615;DHT22;28754;47.700;7.924;2023-04-24T15:00:06;11.60;99.90
42615;DHT22;28754;47.700;7.924;2023-04-24T15:02:56;11.30;99.90
42615;DHT22;28754;47.700;7.924;2023-04-24T15:05:43;10.90;99.90
42615;DHT22;28754;47.700;7.924;2023-04-24T15:08:29;10.80;99.90
42615;DHT22;28754;47.700;7.924;2023-04-24T15:11:17;10.70;99.90
42615;DHT22;28754;47.700;7.924;2023-04-24T15:14:04;10.60;99.90
42615;DHT22;28754;47.700;7.924;2023-04-24T15:16:50;10.20;99.90
42615;DHT22;28754;47.700;7.924;2023-04-24T15:19:37;10.40;99.90
42615;DHT22;28754;47.700;7.924;2023-04-24T15:22:24;10.10;99.90
42615;DHT22;28754;47.700;7.924;2023-04-24T15:25:11;10.10;99.90
42615;DHT22;28754;47.700;7.924;2023-04-24T15:27:58;10.10;99.90
42615;DHT22;28754;47.700;7.924;2023-04-24T15:30:45;10.20;99.90
42615;DHT22;28754;47.700;7.924;2023-04-24T15:33:34;10.20;99.90
42615;DHT22;28754;47.700;7.924;2023-04-24T15:36:24;10.10;99.90
42615;DHT22;28754;47.700;7.924;2023-04-24T15:39:22;10.10;99.90
42615;DHT22;28754;47.700;7.924;2023-04-24T15:42:16;10.30;99.90
42615;DHT22;28754;47.700;7.924;2023-04-24T15:45:09;10.30;99.90
42615;DHT22;28754;47.700;7.924;2023-04-24T15:48:09;10.50;99.90
42615;DHT22;28754;47.700;7.924;2023-04-24T15:50:55;10.40;99.90
42615;DHT22;28754;47.700;7.924;2023-04-24T15:54:04;10.40;99.90
42615;DHT22;28754;47.700;7.924;2023-04-24T15:57:55;10.40;99.90
42615;DHT22;28754;47.700;7.924;2023-04-24T16:02:07;10.20;99.90
42615;DHT22;28754;47.700;7.924;2023-04-24T16:06:02;9.90;99.90
42615;DHT22;28754;47.700;7.924;2023-04-24T16:35:45;9.80;99.90
42615;DHT22;28754;47.700;7.924;2023-04-24T16:43:56;9.30;99.90
42615;DHT22;28754;47.700;7.924;2023-04-24T16:46:46;9.40;99.90
42615;DHT22;28754;47.700;7.924;2023-04-24T17:09:18;9.00;99.90
42615;DHT22;28754;47.700;7.924;2023-04-24T17:12:24;9.00;99.90
42615;DHT22;28754;47.700;7.924;2023-04-24T17:15:38;9.00;99.90
42615;DHT22;28754;47.700;7.924;2023-04-24T17:18:48;8.90;99.90
42615;DHT22;28754;47.700;7.924;2023-04-24T17:21:42;8.90;99.90
42615;DHT22;28754;47.700;7.924;2023-04-24T17:24:37;9.00;99.90
42615;DHT22;28754;47.700;7.924;2023-04-24T17:50:02;8.60;99.90
42615;DHT22;28754;47.700;7.924;2023-04-24T17:53:33;8.60;99.90
42615;DHT22;28754;47.700;7.924;2023-04-24T17:56:48;8.60;99.90
42615;DHT22;28754;47.700;7.924;2023-04-24T18:13:31;8.60;99.90
42615;DHT22;28754;47.700;7.924;2023-04-24T18:16:22;8.40;99.90
42615;DHT22;28754;47.700;7.924;2023-04-24T18:19:09;8.40;99.90
42615;DHT22;28754;47.700;7.924;2023-04-24T18:22:16;8.40;99.90
42615;DHT22;28754;47.700;7.924;2023-04-24T18:25:04;8.30;99.90
42615;DHT22;28754;47.700;7.924;2023-04-24T18:27:54;8.20;99.90
42615;DHT22;28754;47.700;7.924;2023-04-24T18:30:46;8.10;99.90
42615;DHT22;28754;47.700;7.924;2023-04-24T18:37:30;7.90;99.90
42615;DHT22;28754;47.700;7.924;2023-04-24T18:40:43;7.60;99.90
42615;DHT22;28754;47.700;7.924;2023-04-24T18:43:40;7.60;99.90
42615;DHT22;28754;47.700;7.924;2023-04-24T18:46:27;7.50;99.90
42615;DHT22;28754;47.700;7.924;2023-04-24T18:49:19;7.50;99.90
42615;DHT22;28754;47.700;7.924;2023-04-24T18:52:09;7.60;99.90
42615;DHT22;28754;47.700;7.924;2023-04-24T18:55:08;7.70;99.90
42615;DHT22;28754;47.700;7.924;2023-04-24T18:57:58;7.80;99.90
42615;DHT22;28754;47.700;7.924;2023-04-24T19:01:01;7.80;99.90
42615;DHT22;28754;47.700;7.924;2023-04-24T19:08:34;7.60;99.90
42615;DHT22;28754;47.700;7.924;2023-04-24T19:15:19;7.50;99.90
42615;DHT22;28754;47.700;7.924;2023-04-24T19:18:33;7.50;99.90
42615;DHT22;28754;47.700;7.924;2023-04-24T19:21:29;7.50;99.90
42615;DHT22;28754;47.700;7.924;2023-04-24T19:24:17;7.50;99.90
42615;DHT22;28754;47.700;7.924;2023-04-24T19:27:45;7.50;99.90
42615;DHT22;28754;47.700;7.924;2023-04-24T19:30:39;7.50;99.90
42615;DHT22;28754;47.700;7.924;2023-04-24T19:33:57;7.60;99.90
42615;DHT22;28754;47.700;7.924;2023-04-24T19:36:50;7.60;99.90
42615;DHT22;28754;47.700;7.924;2023-04-24T19:39:39;7.60;99.90
42615;DHT22;28754;47.700;7.924;2023-04-24T19:42:26;7.60;99.90
42615;DHT22;28754;47.700;7.924;2023-04-24T19:45:13;7.50;99.90
42615;DHT22;28754;47.700;7.924;2023-04-24T19:48:08;7.60;99.90
42615;DHT22;28754;47.700;7.924;2023-04-24T19:51:01;7.60;99.90
42615;DHT22;28754;47.700;7.924;2023-04-24T19:53:59;7.70;99.90
42615;DHT22;28754;47.700;7.924;2023-04-24T19:56:53;7.70;99.90
42615;DHT22;28754;47.700;7.924;2023-04-24T19:59:41;7.60;99.90
42615;DHT22;28754;47.700;7.924;2023-04-24T20:02:33;7.70;99.90
42615;DHT22;28754;47.700;7.924;2023-04-24T20:05:20;7.60;99.90
42615;DHT22;28754;47.700;7.924;2023-04-24T20:08:07;7.60;99.90
42615;DHT22;28754;47.700;7.924;2023-04-24T20:10:58;7.60;99.90